sensor_id;sensor_type;location;lat;lon;timestamp;P1;durP1;ratioP1;P2;durP2;ratioP2
54745;SDS011;40640;48.130;11.356;2022-12-15T00:01:37;31.00;;;16.88;;
54745;SDS011;40640;48.130;11.356;2022-12-15T00:11:46;30.02;;;15.30;;
54745;SDS011;40640;48.130;11.356;2022-12-15T00:16:07;33.30;;;18.13;;
54745;SDS011;40640;48.130;11.356;2022-12-15T00:20:27;32.72;;;16.98;;
54745;SDS011;40640;48.130;11.356;2022-12-15T00:24:47;31.45;;;17.30;;
54745;SDS011;40640;48.130;11.356;2022-12-15T00:29:09;38.42;;;20.77;;
54745;SDS011;40640;48.130;11.356;2022-12-15T00:33:29;36.20;;;20.02;;
54745;SDS011;40640;48.130;11.356;2022-12-15T00:37:50;36.40;;;19.98;;
54745;SDS011;40640;48.130;11.356;2022-12-15T00:42:11;39.28;;;20.52;;
54745;SDS011;40640;48.130;11.356;2022-12-15T00:46:15;46.40;;;22.63;;
54745;SDS011;40640;48.130;11.356;2022-12-15T00:50:36;38.92;;;20.50;;
54745;SDS011;40640;48.130;11.356;2022-12-15T00:54:54;34.63;;;19.90;;
54745;SDS011;40640;48.130;11.356;2022-12-15T00:59:14;40.25;;;21.15;;
54745;SDS011;40640;48.130;11.356;2022-12-15T01:03:36;36.47;;;20.85;;
54745;SDS011;40640;48.130;11.356;2022-12-15T01:07:58;33.70;;;19.40;;
54745;SDS011;40640;48.130;11.356;2022-12-15T01:12:20;38.83;;;20.67;;
54745;SDS011;40640;48.130;11.356;2022-12-15T01:16:40;37.22;;;20.02;;
54745;SDS011;40640;48.130;11.356;2022-12-15T01:21:02;37.70;;;19.42;;
54745;SDS011;40640;48.130;11.356;2022-12-15T01:25:19;35.28;;;19.38;;
54745;SDS011;40640;48.130;11.356;2022-12-15T01:29:23;35.17;;;19.58;;
54745;SDS011;40640;48.130;11.356;2022-12-15T01:33:26;36.13;;;19.77;;
54745;SDS011;40640;48.130;11.356;2022-12-15T01:37:31;39.85;;;20.60;;
54745;SDS011;40640;48.130;11.356;2022-12-15T01:41:33;39.22;;;20.33;;
54745;SDS011;40640;48.130;11.356;2022-12-15T01:45:47;36.83;;;20.40;;
54745;SDS011;40640;48.130;11.356;2022-12-15T01:53:58;34.45;;;19.00;;
54745;SDS011;40640;48.130;11.356;2022-12-15T01:58:06;42.47;;;21.33;;
54745;SDS011;40640;48.130;11.356;2022-12-15T02:02:10;38.80;;;20.47;;
54745;SDS011;40640;48.130;11.356;2022-12-15T02:06:14;39.78;;;21.15;;
54745;SDS011;40640;48.130;11.356;2022-12-15T02:10:25;40.13;;;20.70;;
54745;SDS011;40640;48.130;11.356;2022-12-15T02:14:35;36.72;;;19.70;;
54745;SDS011;40640;48.130;11.356;2022-12-15T02:18:49;38.95;;;20.73;;
54745;SDS011;40640;48.130;11.356;2022-12-15T02:23:08;37.80;;;19.88;;
54745;SDS011;40640;48.130;11.356;2022-12-15T02:27:38;39.05;;;20.80;;
54745;SDS011;40640;48.130;11.356;2022-12-15T02:31:51;38.95;;;20.38;;
54745;SDS011;40640;48.130;11.356;2022-12-15T02:36:11;37.75;;;19.27;;
54745;SDS011;40640;48.130;11.356;2022-12-15T02:41:48;38.53;;;19.65;;
54745;SDS011;40640;48.130;11.356;2022-12-15T02:45:54;37.15;;;19.35;;
54745;SDS011;40640;48.130;11.356;2022-12-15T02:50:14;38.30;;;18.77;;
54745;SDS011;40640;48.130;11.356;2022-12-15T02:54:30;37.03;;;19.42;;
54745;SDS011;40640;48.130;11.356;2022-12-15T03:04:30;34.60;;;17.75;;
54745;SDS011;40640;48.130;11.356;2022-12-15T03:08:35;34.78;;;19.10;;
54745;SDS011;40640;48.130;11.356;2022-12-15T03:12:38;35.40;;;18.95;;
54745;SDS011;40640;48.130;11.356;2022-12-15T03:16:41;36.95;;;19.00;;
54745;SDS011;40640;48.130;11.356;2022-12-15T03:20:44;37.95;;;19.15;;
54745;SDS011;40640;48.130;11.356;2022-12-15T03:24:48;34.17;;;17.98;;
54745;SDS011;40640;48.130;11.356;2022-12-15T03:28:50;37.28;;;18.40;;
54745;SDS011;40640;48.130;11.356;2022-12-15T03:32:54;35.80;;;18.48;;
54745;SDS011;40640;48.130;11.356;2022-12-15T03:36:56;40.30;;;20.52;;
54745;SDS011;40640;48.130;11.356;2022-12-15T03:41:00;37.65;;;19.90;;
54745;SDS011;40640;48.130;11.356;2022-12-15T03:45:03;39.25;;;19.88;;
54745;SDS011;40640;48.130;11.356;2022-12-15T03:49:07;42.30;;;20.38;;
54745;SDS011;40640;48.130;11.356;2022-12-15T03:57:34;38.53;;;19.25;;
54745;SDS011;40640;48.130;11.356;2022-12-15T04:01:37;38.85;;;20.17;;
54745;SDS011;40640;48.130;11.356;2022-12-15T04:05:46;39.35;;;20.92;;
54745;SDS011;40640;48.130;11.356;2022-12-15T04:09:49;43.90;;;21.55;;
54745;SDS011;40640;48.130;11.356;2022-12-15T04:13:53;40.30;;;21.58;;
54745;SDS011;40640;48.130;11.356;2022-12-15T04:17:55;41.90;;;21.67;;
54745;SDS011;40640;48.130;11.356;2022-12-15T04:21:58;41.55;;;21.15;;
54745;SDS011;40640;48.130;11.356;2022-12-15T04:26:02;41.33;;;20.15;;
54745;SDS011;40640;48.130;11.356;2022-12-15T04:30:24;48.30;;;23.23;;
54745;SDS011;40640;48.130;11.356;2022-12-15T04:34:44;42.33;;;21.35;;
54745;SDS011;40640;48.130;11.356;2022-12-15T04:39:04;47.45;;;22.95;;
54745;SDS011;40640;48.130;11.356;2022-12-15T04:43:25;45.28;;;22.88;;
54745;SDS011;40640;48.130;11.356;2022-12-15T04:47:47;50.60;;;23.10;;
54745;SDS011;40640;48.130;11.356;2022-12-15T04:52:08;47.78;;;23.25;;
54745;SDS011;40640;48.130;11.356;2022-12-15T04:56:28;47.55;;;23.55;;
54745;SDS011;40640;48.130;11.356;2022-12-15T05:00:50;49.30;;;24.52;;
54745;SDS011;40640;48.130;11.356;2022-12-15T05:05:12;50.67;;;22.67;;
54745;SDS011;40640;48.130;11.356;2022-12-15T05:09:33;50.35;;;23.73;;
54745;SDS011;40640;48.130;11.356;2022-12-15T05:13:53;48.05;;;23.02;;
54745;SDS011;40640;48.130;11.356;2022-12-15T05:18:13;49.83;;;24.42;;
54745;SDS011;40640;48.130;11.356;2022-12-15T05:22:35;50.33;;;24.75;;
54745;SDS011;40640;48.130;11.356;2022-12-15T05:26:55;48.95;;;24.65;;
54745;SDS011;40640;48.130;11.356;2022-12-15T05:31:16;50.90;;;24.38;;
54745;SDS011;40640;48.130;11.356;2022-12-15T05:35:36;51.75;;;24.60;;
54745;SDS011;40640;48.130;11.356;2022-12-15T05:39:40;49.75;;;24.02;;
54745;SDS011;40640;48.130;11.356;2022-12-15T05:43:43;55.60;;;24.40;;
54745;SDS011;40640;48.130;11.356;2022-12-15T05:47:49;49.10;;;24.17;;
54745;SDS011;40640;48.130;11.356;2022-12-15T05:51:52;50.58;;;24.45;;
54745;SDS011;40640;48.130;11.356;2022-12-15T05:56:00;52.72;;;25.27;;
54745;SDS011;40640;48.130;11.356;2022-12-15T06:00:04;50.00;;;23.95;;
54745;SDS011;40640;48.130;11.356;2022-12-15T06:04:12;51.35;;;24.63;;
54745;SDS011;40640;48.130;11.356;2022-12-15T06:08:15;50.63;;;24.92;;
54745;SDS011;40640;48.130;11.356;2022-12-15T06:12:19;51.95;;;24.92;;
54745;SDS011;40640;48.130;11.356;2022-12-15T06:16:22;51.15;;;24.35;;
54745;SDS011;40640;48.130;11.356;2022-12-15T06:24:30;49.90;;;23.80;;
54745;SDS011;40640;48.130;11.356;2022-12-15T06:52:32;47.33;;;23.33;;
54745;SDS011;40640;48.130;11.356;2022-12-15T06:56:35;50.45;;;22.40;;
54745;SDS011;40640;48.130;11.356;2022-12-15T07:00:39;45.90;;;22.88;;
54745;SDS011;40640;48.130;11.356;2022-12-15T07:04:43;54.10;;;23.05;;
54745;SDS011;40640;48.130;11.356;2022-12-15T07:08:48;43.58;;;22.08;;
54745;SDS011;40640;48.130;11.356;2022-12-15T07:12:54;47.70;;;23.45;;
54745;SDS011;40640;48.130;11.356;2022-12-15T07:16:57;47.17;;;23.25;;
54745;SDS011;40640;48.130;11.356;2022-12-15T07:21:01;48.35;;;22.70;;
54745;SDS011;40640;48.130;11.356;2022-12-15T07:25:07;50.53;;;24.80;;
54745;SDS011;40640;48.130;11.356;2022-12-15T07:29:10;52.35;;;25.38;;
54745;SDS011;40640;48.130;11.356;2022-12-15T07:33:19;43.22;;;23.58;;
54745;SDS011;40640;48.130;11.356;2022-12-15T07:37:22;51.30;;;24.30;;
54745;SDS011;40640;48.130;11.356;2022-12-15T07:41:27;51.65;;;24.60;;
54745;SDS011;40640;48.130;11.356;2022-12-15T07:45:30;49.00;;;23.55;;
54745;SDS011;40640;48.130;11.356;2022-12-15T07:49:33;49.67;;;23.58;;
54745;SDS011;40640;48.130;11.356;2022-12-15T07:53:36;47.45;;;23.45;;
54745;SDS011;40640;48.130;11.356;2022-12-15T07:57:40;51.70;;;24.40;;
54745;SDS011;40640;48.130;11.356;2022-12-15T08:01:43;49.72;;;24.67;;
54745;SDS011;40640;48.130;11.356;2022-12-15T08:05:46;46.63;;;24.00;;
54745;SDS011;40640;48.130;11.356;2022-12-15T08:09:49;49.78;;;23.08;;
54745;SDS011;40640;48.130;11.356;2022-12-15T08:13:55;47.10;;;23.35;;
54745;SDS011;40640;48.130;11.356;2022-12-15T08:18:04;45.42;;;23.83;;
54745;SDS011;40640;48.130;11.356;2022-12-15T08:22:07;48.45;;;24.33;;
54745;SDS011;40640;48.130;11.356;2022-12-15T08:26:12;47.83;;;24.80;;
54745;SDS011;40640;48.130;11.356;2022-12-15T08:30:17;51.25;;;25.23;;
54745;SDS011;40640;48.130;11.356;2022-12-15T08:34:20;48.67;;;23.30;;
54745;SDS011;40640;48.130;11.356;2022-12-15T08:38:23;46.90;;;22.77;;
54745;SDS011;40640;48.130;11.356;2022-12-15T08:42:26;47.22;;;24.05;;
54745;SDS011;40640;48.130;11.356;2022-12-15T08:46:30;44.35;;;24.05;;
54745;SDS011;40640;48.130;11.356;2022-12-15T08:54:38;44.97;;;23.55;;
54745;SDS011;40640;48.130;11.356;2022-12-15T08:58:40;46.25;;;24.52;;
54745;SDS011;40640;48.130;11.356;2022-12-15T09:02:45;46.38;;;24.30;;
54745;SDS011;40640;48.130;11.356;2022-12-15T09:06:48;48.10;;;24.45;;
54745;SDS011;40640;48.130;11.356;2022-12-15T09:10:51;46.25;;;24.25;;
54745;SDS011;40640;48.130;11.356;2022-12-15T09:14:54;45.65;;;24.00;;
54745;SDS011;40640;48.130;11.356;2022-12-15T09:18:58;49.78;;;25.40;;
54745;SDS011;40640;48.130;11.356;2022-12-15T09:23:01;57.30;;;27.13;;
54745;SDS011;40640;48.130;11.356;2022-12-15T09:27:04;53.15;;;24.25;;
54745;SDS011;40640;48.130;11.356;2022-12-15T09:31:07;50.10;;;25.58;;
54745;SDS011;40640;48.130;11.356;2022-12-15T09:35:13;54.47;;;25.27;;
54745;SDS011;40640;48.130;11.356;2022-12-15T09:39:17;54.03;;;24.92;;
54745;SDS011;40640;48.130;11.356;2022-12-15T09:43:21;48.42;;;25.15;;
54745;SDS011;40640;48.130;11.356;2022-12-15T09:47:38;51.75;;;26.15;;
54745;SDS011;40640;48.130;11.356;2022-12-15T09:51:52;52.50;;;26.60;;
54745;SDS011;40640;48.130;11.356;2022-12-15T09:56:10;60.65;;;26.58;;
54745;SDS011;40640;48.130;11.356;2022-12-15T10:00:20;52.80;;;26.98;;
54745;SDS011;40640;48.130;11.356;2022-12-15T10:04:28;53.03;;;25.75;;
54745;SDS011;40640;48.130;11.356;2022-12-15T10:08:39;48.95;;;24.70;;
54745;SDS011;40640;48.130;11.356;2022-12-15T10:12:45;53.22;;;26.10;;
54745;SDS011;40640;48.130;11.356;2022-12-15T10:17:04;49.92;;;26.27;;
54745;SDS011;40640;48.130;11.356;2022-12-15T10:21:17;50.80;;;25.70;;
54745;SDS011;40640;48.130;11.356;2022-12-15T10:25:30;50.85;;;26.90;;
54745;SDS011;40640;48.130;11.356;2022-12-15T10:29:35;52.43;;;26.07;;
54745;SDS011;40640;48.130;11.356;2022-12-15T10:33:43;52.72;;;25.98;;
54745;SDS011;40640;48.130;11.356;2022-12-15T10:37:54;56.92;;;27.08;;
54745;SDS011;40640;48.130;11.356;2022-12-15T10:42:12;53.08;;;27.92;;
54745;SDS011;40640;48.130;11.356;2022-12-15T10:46:21;56.22;;;26.83;;
54745;SDS011;40640;48.130;11.356;2022-12-15T10:50:26;51.78;;;26.50;;
54745;SDS011;40640;48.130;11.356;2022-12-15T10:54:31;57.60;;;27.13;;
54745;SDS011;40640;48.130;11.356;2022-12-15T10:58:45;50.35;;;27.48;;
54745;SDS011;40640;48.130;11.356;2022-12-15T11:02:51;60.10;;;28.35;;
54745;SDS011;40640;48.130;11.356;2022-12-15T11:06:57;51.63;;;27.27;;
54745;SDS011;40640;48.130;11.356;2022-12-15T11:11:01;46.95;;;25.65;;
54745;SDS011;40640;48.130;11.356;2022-12-15T11:19:55;52.80;;;25.48;;
54745;SDS011;40640;48.130;11.356;2022-12-15T11:24:04;51.03;;;28.00;;
54745;SDS011;40640;48.130;11.356;2022-12-15T11:28:14;49.50;;;26.95;;
54745;SDS011;40640;48.130;11.356;2022-12-15T11:32:24;53.58;;;27.15;;
54745;SDS011;40640;48.130;11.356;2022-12-15T11:36:38;58.78;;;26.80;;
54745;SDS011;40640;48.130;11.356;2022-12-15T11:40:55;49.72;;;25.60;;
54745;SDS011;40640;48.130;11.356;2022-12-15T11:45:06;51.40;;;26.80;;
54745;SDS011;40640;48.130;11.356;2022-12-15T11:49:27;58.75;;;27.05;;
54745;SDS011;40640;48.130;11.356;2022-12-15T11:53:47;55.45;;;26.60;;
54745;SDS011;40640;48.130;11.356;2022-12-15T11:58:07;53.05;;;27.35;;
54745;SDS011;40640;48.130;11.356;2022-12-15T12:02:37;57.13;;;28.50;;
54745;SDS011;40640;48.130;11.356;2022-12-15T12:06:53;61.95;;;28.38;;
54745;SDS011;40640;48.130;11.356;2022-12-15T12:11:06;55.88;;;26.58;;
54745;SDS011;40640;48.130;11.356;2022-12-15T12:15:18;53.53;;;27.08;;
54745;SDS011;40640;48.130;11.356;2022-12-15T12:19:30;54.53;;;27.00;;
54745;SDS011;40640;48.130;11.356;2022-12-15T12:23:39;61.05;;;28.17;;
54745;SDS011;40640;48.130;11.356;2022-12-15T12:27:51;60.45;;;27.48;;
54745;SDS011;40640;48.130;11.356;2022-12-15T12:31:59;51.05;;;27.27;;
54745;SDS011;40640;48.130;11.356;2022-12-15T12:36:07;53.38;;;27.65;;
54745;SDS011;40640;48.130;11.356;2022-12-15T12:40:18;50.83;;;26.70;;
54745;SDS011;40640;48.130;11.356;2022-12-15T12:44:27;55.15;;;28.17;;
54745;SDS011;40640;48.130;11.356;2022-12-15T12:48:33;58.95;;;27.58;;
54745;SDS011;40640;48.130;11.356;2022-12-15T12:52:39;58.88;;;26.92;;
54745;SDS011;40640;48.130;11.356;2022-12-15T12:56:51;57.50;;;27.70;;
54745;SDS011;40640;48.130;11.356;2022-12-15T13:01:02;55.80;;;28.05;;
54745;SDS011;40640;48.130;11.356;2022-12-15T13:05:27;62.90;;;28.77;;
54745;SDS011;40640;48.130;11.356;2022-12-15T13:09:38;56.63;;;27.73;;
54745;SDS011;40640;48.130;11.356;2022-12-15T13:13:44;57.75;;;27.88;;
54745;SDS011;40640;48.130;11.356;2022-12-15T13:17:53;56.90;;;27.92;;
54745;SDS011;40640;48.130;11.356;2022-12-15T13:21:59;58.65;;;28.20;;
54745;SDS011;40640;48.130;11.356;2022-12-15T13:26:11;56.80;;;28.35;;
54745;SDS011;40640;48.130;11.356;2022-12-15T13:30:17;60.90;;;28.48;;
54745;SDS011;40640;48.130;11.356;2022-12-15T13:34:21;57.22;;;28.13;;
54745;SDS011;40640;48.130;11.356;2022-12-15T13:38:49;59.85;;;28.20;;
54745;SDS011;40640;48.130;11.356;2022-12-15T13:42:55;66.03;;;29.17;;
54745;SDS011;40640;48.130;11.356;2022-12-15T13:47:04;63.65;;;30.08;;
54745;SDS011;40640;48.130;11.356;2022-12-15T13:51:20;58.60;;;28.30;;
54745;SDS011;40640;48.130;11.356;2022-12-15T13:55:30;59.22;;;28.10;;
54745;SDS011;40640;48.130;11.356;2022-12-15T13:59:40;56.88;;;28.17;;
54745;SDS011;40640;48.130;11.356;2022-12-15T14:03:56;69.43;;;29.77;;
54745;SDS011;40640;48.130;11.356;2022-12-15T14:08:08;68.80;;;30.65;;
54745;SDS011;40640;48.130;11.356;2022-12-15T14:12:14;74.47;;;31.15;;
54745;SDS011;40640;48.130;11.356;2022-12-15T14:16:18;73.85;;;31.40;;
54745;SDS011;40640;48.130;11.356;2022-12-15T14:20:24;68.50;;;31.30;;
54745;SDS011;40640;48.130;11.356;2022-12-15T14:24:30;75.22;;;31.45;;
54745;SDS011;40640;48.130;11.356;2022-12-15T14:28:41;78.68;;;32.30;;
54745;SDS011;40640;48.130;11.356;2022-12-15T14:32:46;76.27;;;32.17;;
54745;SDS011;40640;48.130;11.356;2022-12-15T14:36:52;79.70;;;34.35;;
54745;SDS011;40640;48.130;11.356;2022-12-15T14:40:59;77.97;;;32.03;;
54745;SDS011;40640;48.130;11.356;2022-12-15T14:45:03;74.55;;;33.03;;
54745;SDS011;40640;48.130;11.356;2022-12-15T14:49:08;77.22;;;34.28;;
54745;SDS011;40640;48.130;11.356;2022-12-15T14:53:17;72.75;;;32.42;;
54745;SDS011;40640;48.130;11.356;2022-12-15T14:57:23;77.05;;;35.30;;
54745;SDS011;40640;48.130;11.356;2022-12-15T15:05:34;79.27;;;32.20;;
54745;SDS011;40640;48.130;11.356;2022-12-15T15:09:42;74.13;;;32.35;;
54745;SDS011;40640;48.130;11.356;2022-12-15T15:13:47;80.07;;;33.67;;
54745;SDS011;40640;48.130;11.356;2022-12-15T15:17:52;78.80;;;33.55;;
54745;SDS011;40640;48.130;11.356;2022-12-15T15:21:57;78.75;;;35.70;;
54745;SDS011;40640;48.130;11.356;2022-12-15T15:26:07;81.03;;;31.58;;
54745;SDS011;40640;48.130;11.356;2022-12-15T15:30:13;79.15;;;31.55;;
54745;SDS011;40640;48.130;11.356;2022-12-15T15:34:19;74.30;;;29.52;;
54745;SDS011;40640;48.130;11.356;2022-12-15T15:38:23;76.25;;;33.28;;
54745;SDS011;40640;48.130;11.356;2022-12-15T15:42:29;69.93;;;30.55;;
54745;SDS011;40640;48.130;11.356;2022-12-15T15:46:33;68.38;;;31.35;;
54745;SDS011;40640;48.130;11.356;2022-12-15T15:50:46;76.93;;;31.40;;
54745;SDS011;40640;48.130;11.356;2022-12-15T15:54:51;80.68;;;31.67;;
54745;SDS011;40640;48.130;11.356;2022-12-15T15:59:09;81.35;;;32.45;;
54745;SDS011;40640;48.130;11.356;2022-12-15T16:03:14;78.00;;;31.33;;
54745;SDS011;40640;48.130;11.356;2022-12-15T16:07:18;79.13;;;31.33;;
54745;SDS011;40640;48.130;11.356;2022-12-15T16:11:25;81.57;;;31.33;;
54745;SDS011;40640;48.130;11.356;2022-12-15T16:15:32;82.18;;;33.60;;
54745;SDS011;40640;48.130;11.356;2022-12-15T16:19:35;76.47;;;32.33;;
54745;SDS011;40640;48.130;11.356;2022-12-15T16:23:40;70.97;;;30.08;;
54745;SDS011;40640;48.130;11.356;2022-12-15T16:27:44;78.13;;;33.60;;
54745;SDS011;40640;48.130;11.356;2022-12-15T16:31:49;79.93;;;31.70;;
54745;SDS011;40640;48.130;11.356;2022-12-15T16:35:52;78.40;;;32.35;;
54745;SDS011;40640;48.130;11.356;2022-12-15T16:39:55;80.00;;;32.60;;
54745;SDS011;40640;48.130;11.356;2022-12-15T16:43:58;71.68;;;31.45;;
54745;SDS011;40640;48.130;11.356;2022-12-15T16:48:02;73.10;;;31.67;;
54745;SDS011;40640;48.130;11.356;2022-12-15T16:52:07;83.53;;;31.40;;
54745;SDS011;40640;48.130;11.356;2022-12-15T16:56:16;73.68;;;31.65;;
54745;SDS011;40640;48.130;11.356;2022-12-15T17:00:20;76.18;;;31.80;;
54745;SDS011;40640;48.130;11.356;2022-12-15T17:04:26;87.95;;;35.22;;
54745;SDS011;40640;48.130;11.356;2022-12-15T17:08:31;80.75;;;32.78;;
54745;SDS011;40640;48.130;11.356;2022-12-15T17:12:41;79.70;;;32.97;;
54745;SDS011;40640;48.130;11.356;2022-12-15T17:16:45;85.57;;;32.72;;
54745;SDS011;40640;48.130;11.356;2022-12-15T17:20:49;80.72;;;31.60;;
54745;SDS011;40640;48.130;11.356;2022-12-15T17:24:53;86.57;;;34.28;;
54745;SDS011;40640;48.130;11.356;2022-12-15T17:28:57;89.38;;;33.67;;
54745;SDS011;40640;48.130;11.356;2022-12-15T17:33:04;75.40;;;32.08;;
54745;SDS011;40640;48.130;11.356;2022-12-15T17:37:18;88.72;;;31.88;;
54745;SDS011;40640;48.130;11.356;2022-12-15T17:41:21;83.00;;;34.65;;
54745;SDS011;40640;48.130;11.356;2022-12-15T17:45:47;84.68;;;33.15;;
54745;SDS011;40640;48.130;11.356;2022-12-15T17:49:51;74.75;;;31.17;;
54745;SDS011;40640;48.130;11.356;2022-12-15T17:53:55;81.85;;;33.05;;
54745;SDS011;40640;48.130;11.356;2022-12-15T17:57:58;81.50;;;33.38;;
54745;SDS011;40640;48.130;11.356;2022-12-15T18:02:01;80.47;;;31.33;;
54745;SDS011;40640;48.130;11.356;2022-12-15T18:06:04;78.15;;;31.92;;
54745;SDS011;40640;48.130;11.356;2022-12-15T18:10:20;80.25;;;29.45;;
54745;SDS011;40640;48.130;11.356;2022-12-15T18:14:26;79.78;;;33.00;;
54745;SDS011;40640;48.130;11.356;2022-12-15T18:18:40;77.38;;;30.45;;
54745;SDS011;40640;48.130;11.356;2022-12-15T18:22:43;74.90;;;30.02;;
54745;SDS011;40640;48.130;11.356;2022-12-15T18:26:47;80.68;;;31.20;;
54745;SDS011;40640;48.130;11.356;2022-12-15T18:30:50;83.50;;;31.33;;
54745;SDS011;40640;48.130;11.356;2022-12-15T18:34:54;93.20;;;33.08;;
54745;SDS011;40640;48.130;11.356;2022-12-15T18:38:57;83.93;;;32.05;;
54745;SDS011;40640;48.130;11.356;2022-12-15T18:43:01;87.93;;;32.10;;
54745;SDS011;40640;48.130;11.356;2022-12-15T18:47:04;100.28;;;32.88;;
54745;SDS011;40640;48.130;11.356;2022-12-15T18:51:16;91.03;;;31.85;;
54745;SDS011;40640;48.130;11.356;2022-12-15T18:55:20;98.65;;;34.10;;
54745;SDS011;40640;48.130;11.356;2022-12-15T18:59:25;101.78;;;35.85;;
54745;SDS011;40640;48.130;11.356;2022-12-15T19:03:28;123.38;;;38.83;;
54745;SDS011;40640;48.130;11.356;2022-12-15T19:07:32;107.25;;;34.97;;
54745;SDS011;40640;48.130;11.356;2022-12-15T19:11:36;110.47;;;34.03;;
54745;SDS011;40640;48.130;11.356;2022-12-15T19:15:41;99.40;;;34.50;;
54745;SDS011;40640;48.130;11.356;2022-12-15T19:19:44;117.55;;;36.53;;
54745;SDS011;40640;48.130;11.356;2022-12-15T19:24:06;102.25;;;33.33;;
54745;SDS011;40640;48.130;11.356;2022-12-15T19:28:13;103.00;;;35.72;;
54745;SDS011;40640;48.130;11.356;2022-12-15T19:32:18;125.75;;;34.95;;
54745;SDS011;40640;48.130;11.356;2022-12-15T19:36:21;119.07;;;37.35;;
54745;SDS011;40640;48.130;11.356;2022-12-15T19:40:26;102.97;;;35.80;;
54745;SDS011;40640;48.130;11.356;2022-12-15T19:44:30;109.10;;;36.20;;
54745;SDS011;40640;48.130;11.356;2022-12-15T19:48:35;114.97;;;36.83;;
54745;SDS011;40640;48.130;11.356;2022-12-15T19:52:37;113.88;;;35.60;;
54745;SDS011;40640;48.130;11.356;2022-12-15T19:56:40;116.90;;;37.78;;
54745;SDS011;40640;48.130;11.356;2022-12-15T20:00:44;110.35;;;35.67;;
54745;SDS011;40640;48.130;11.356;2022-12-15T20:04:49;111.75;;;36.33;;
54745;SDS011;40640;48.130;11.356;2022-12-15T20:08:52;108.65;;;36.17;;
54745;SDS011;40640;48.130;11.356;2022-12-15T20:12:56;105.63;;;34.22;;
54745;SDS011;40640;48.130;11.356;2022-12-15T20:16:59;101.38;;;33.30;;
54745;SDS011;40640;48.130;11.356;2022-12-15T20:21:04;93.75;;;33.53;;
54745;SDS011;40640;48.130;11.356;2022-12-15T20:25:08;83.05;;;31.08;;
54745;SDS011;40640;48.130;11.356;2022-12-15T20:29:19;90.00;;;29.73;;
54745;SDS011;40640;48.130;11.356;2022-12-15T20:33:24;88.78;;;29.50;;
54745;SDS011;40640;48.130;11.356;2022-12-15T20:37:29;80.35;;;29.20;;
54745;SDS011;40640;48.130;11.356;2022-12-15T20:41:31;82.15;;;28.17;;
54745;SDS011;40640;48.130;11.356;2022-12-15T20:45:34;76.13;;;27.50;;
54745;SDS011;40640;48.130;11.356;2022-12-15T20:49:37;74.75;;;26.83;;
54745;SDS011;40640;48.130;11.356;2022-12-15T20:53:42;74.20;;;27.05;;
54745;SDS011;40640;48.130;11.356;2022-12-15T20:57:45;70.30;;;25.77;;
54745;SDS011;40640;48.130;11.356;2022-12-15T21:01:48;75.95;;;25.00;;
54745;SDS011;40640;48.130;11.356;2022-12-15T21:05:55;77.70;;;26.30;;
54745;SDS011;40640;48.130;11.356;2022-12-15T21:10:01;66.57;;;24.08;;
54745;SDS011;40640;48.130;11.356;2022-12-15T21:14:05;73.57;;;25.05;;
54745;SDS011;40640;48.130;11.356;2022-12-15T21:18:12;66.55;;;24.80;;
54745;SDS011;40640;48.130;11.356;2022-12-15T21:22:36;66.53;;;25.38;;
54745;SDS011;40640;48.130;11.356;2022-12-15T21:26:41;64.63;;;25.48;;
54745;SDS011;40640;48.130;11.356;2022-12-15T21:30:44;65.13;;;25.10;;
54745;SDS011;40640;48.130;11.356;2022-12-15T21:34:48;55.78;;;23.38;;
54745;SDS011;40640;48.130;11.356;2022-12-15T21:38:52;60.35;;;23.95;;
54745;SDS011;40640;48.130;11.356;2022-12-15T21:42:56;60.55;;;23.17;;
54745;SDS011;40640;48.130;11.356;2022-12-15T21:46:59;51.47;;;20.67;;
54745;SDS011;40640;48.130;11.356;2022-12-15T21:51:02;49.20;;;20.13;;
54745;SDS011;40640;48.130;11.356;2022-12-15T21:55:09;52.30;;;21.48;;
54745;SDS011;40640;48.130;11.356;2022-12-15T21:59:18;53.33;;;20.90;;
54745;SDS011;40640;48.130;11.356;2022-12-15T22:03:22;47.22;;;19.35;;
54745;SDS011;40640;48.130;11.356;2022-12-15T22:07:25;56.13;;;22.15;;
54745;SDS011;40640;48.130;11.356;2022-12-15T22:11:28;50.25;;;19.60;;
54745;SDS011;40640;48.130;11.356;2022-12-15T22:15:33;55.60;;;20.75;;
54745;SDS011;40640;48.130;11.356;2022-12-15T22:19:36;52.72;;;17.92;;
54745;SDS011;40640;48.130;11.356;2022-12-15T22:23:39;48.42;;;17.13;;
54745;SDS011;40640;48.130;11.356;2022-12-15T22:27:42;45.03;;;18.52;;
54745;SDS011;40640;48.130;11.356;2022-12-15T22:31:47;36.83;;;15.90;;
54745;SDS011;40640;48.130;11.356;2022-12-15T22:39:55;37.13;;;15.63;;
54745;SDS011;40640;48.130;11.356;2022-12-15T22:43:58;37.45;;;14.85;;
54745;SDS011;40640;48.130;11.356;2022-12-15T22:48:02;40.17;;;14.60;;
54745;SDS011;40640;48.130;11.356;2022-12-15T22:52:11;33.38;;;14.85;;
54745;SDS011;40640;48.130;11.356;2022-12-15T22:56:20;37.67;;;15.02;;
54745;SDS011;40640;48.130;11.356;2022-12-15T23:00:25;39.17;;;14.85;;
54745;SDS011;40640;48.130;11.356;2022-12-15T23:04:29;30.67;;;13.45;;
54745;SDS011;40640;48.130;11.356;2022-12-15T23:08:33;28.85;;;12.95;;
54745;SDS011;40640;48.130;11.356;2022-12-15T23:12:35;33.40;;;12.40;;
54745;SDS011;40640;48.130;11.356;2022-12-15T23:16:38;34.17;;;13.32;;
54745;SDS011;40640;48.130;11.356;2022-12-15T23:20:43;32.50;;;12.88;;
54745;SDS011;40640;48.130;11.356;2022-12-15T23:24:46;31.13;;;12.75;;
54745;SDS011;40640;48.130;11.356;2022-12-15T23:28:49;31.30;;;13.10;;
54745;SDS011;40640;48.130;11.356;2022-12-15T23:32:52;29.20;;;12.77;;
54745;SDS011;40640;48.130;11.356;2022-12-15T23:36:57;27.98;;;12.65;;
54745;SDS011;40640;48.130;11.356;2022-12-15T23:40:59;26.48;;;12.00;;
54745;SDS011;40640;48.130;11.356;2022-12-15T23:45:03;28.58;;;13.23;;
54745;SDS011;40640;48.130;11.356;2022-12-15T23:49:06;29.58;;;12.90;;
54745;SDS011;40640;48.130;11.356;2022-12-15T23:53:11;27.75;;;12.60;;
54745;SDS011;40640;48.130;11.356;2022-12-15T23:57:14;32.38;;;13.90;;
